Time;durP1;ratioP1;P1;durP2;ratioP2;P2;SDS_P1;SDS_P2;PMS_P1;PMS_P2;Temp;Humidity;BMP_temperature;BMP_pressure;BME280_temperature;BME280_humidity;BME280_pressure;Samples;Min_cycle;Max_cycle;Signal;HPM_P1;HPM_P2
2022/04/02 00:01:12;;;;;;;8.00;5.40;;;4.60;89.90;;;;;;20842147;28;20208;-64
2022/04/02 00:11:14;;;;;;;9.60;5.60;;;4.70;90.20;;;;;;20841037;28;20240;-62
2022/04/02 00:21:17;;;;;;;7.97;5.60;;;4.70;89.30;;;;;;20840168;28;20211;-64
2022/04/02 00:31:20;;;;;;;16.13;6.60;;;4.70;89.50;;;;;;20839694;28;20242;-65
2022/04/02 00:41:22;;;;;;;20.80;8.10;;;4.60;89.80;;;;;;20838771;28;20558;-65
2022/04/02 00:51:24;;;;;;;7.73;5.87;;;4.60;89.90;;;;;;20838413;28;20247;-64
2022/04/02 01:01:26;;;;;;;10.87;6.80;;;4.50;90.00;;;;;;20858232;28;20212;-64
2022/04/02 01:11:39;;;;;;;10.23;5.97;;;4.60;89.70;;;;;;20843857;28;20239;-64
2022/04/02 01:21:45;;;;;;;9.07;5.83;;;4.60;90.10;;;;;;20835394;28;20302;-64
2022/04/02 01:39:09;;;;;;;10.37;6.10;;;4.60;89.90;;;;;;20926717;28;20585;-64
2022/04/02 01:49:11;;;;;;;10.43;6.40;;;4.50;89.80;;;;;;20899497;28;20310;-64
2022/04/02 01:59:13;;;;;;;8.33;5.83;;;4.60;90.00;;;;;;20900381;28;20687;-63
2022/04/02 02:09:14;;;;;;;11.10;5.70;;;4.60;90.10;;;;;;20898895;28;20210;-65
2022/04/02 02:19:17;;;;;;;7.07;4.53;;;4.50;90.20;;;;;;20898259;28;20208;-64
2022/04/02 02:29:19;;;;;;;8.00;4.70;;;4.50;90.10;;;;;;20896321;28;20209;-64
2022/04/02 02:39:20;;;;;;;7.93;3.90;;;4.50;90.10;;;;;;20896607;28;20208;-64
2022/04/02 02:49:22;;;;;;;8.47;3.87;;;4.50;90.10;;;;;;20850978;28;20207;-64
2022/04/02 02:59:24;;;;;;;4.83;3.80;;;4.50;89.80;;;;;;20841643;28;20225;-63
2022/04/02 03:09:25;;;;;;;7.40;3.80;;;4.40;89.90;;;;;;20840174;28;20215;-63
2022/04/02 03:19:27;;;;;;;5.33;4.07;;;4.40;89.80;;;;;;20839533;28;20255;-63
2022/04/02 03:29:29;;;;;;;6.10;3.80;;;4.40;90.00;;;;;;20838430;28;20239;-63
2022/04/02 03:39:31;;;;;;;9.03;3.60;;;4.40;90.10;;;;;;20833638;28;20218;-63
2022/04/02 03:49:33;;;;;;;5.30;3.70;;;4.40;89.70;;;;;;20835153;28;20208;-73
2022/04/02 03:59:35;;;;;;;4.17;3.40;;;4.40;89.50;;;;;;20836082;28;20223;-71
2022/04/02 04:09:37;;;;;;;6.87;3.73;;;4.40;90.00;;;;;;20834501;28;20211;-73
2022/04/02 04:19:40;;;;;;;4.17;3.23;;;4.40;89.70;;;;;;20834542;28;20208;-64
2022/04/02 04:29:41;;;;;;;4.87;3.40;;;4.40;89.10;;;;;;20832834;28;20710;-67
2022/04/02 04:39:43;;;;;;;5.07;4.07;;;4.30;89.40;;;;;;20832507;28;20211;-63
2022/04/02 04:49:45;;;;;;;3.60;3.10;;;4.20;89.40;;;;;;20831800;28;20245;-66
2022/04/02 05:08:47;;;;;;;5.93;3.43;;;4.00;88.50;;;;;;20983417;28;20940;-71
2022/04/02 05:18:50;;;;;;;6.00;3.63;;;3.90;89.00;;;;;;20982925;28;20211;-62
2022/04/02 05:28:54;;;;;;;5.77;3.77;;;4.00;89.30;;;;;;20982402;28;20697;-63
2022/04/02 05:38:55;;;;;;;6.70;3.70;;;3.70;87.80;;;;;;20939571;28;20232;-63
2022/04/02 05:48:58;;;;;;;8.37;3.97;;;3.70;87.90;;;;;;20980857;28;20205;-68
2022/04/02 05:59:01;;;;;;;5.23;3.80;;;3.80;87.60;;;;;;20916368;28;20210;-69
2022/04/02 06:09:04;;;;;;;7.80;4.13;;;3.80;88.10;;;;;;20901712;28;20304;-67
2022/04/02 06:19:05;;;;;;;7.23;3.90;;;3.80;87.60;;;;;;20850739;28;20215;-63
2022/04/02 06:29:07;;;;;;;7.37;4.17;;;3.90;86.80;;;;;;20856262;28;20231;-63
2022/04/02 06:39:12;;;;;;;6.37;4.23;;;4.00;87.50;;;;;;20931543;28;20272;-73
2022/04/02 06:49:13;;;;;;;7.33;4.10;;;4.10;86.50;;;;;;20926199;28;20232;-73
2022/04/02 06:59:15;;;;;;;8.00;4.30;;;4.20;85.60;;;;;;20926762;28;20239;-73
2022/04/02 07:16:04;;;;;;;6.40;4.20;;;;;;;;;;21073071;27;20722;-73
2022/04/02 07:26:06;;;;;;;6.23;4.10;;;4.40;83.70;;;;;;21069729;28;20199;-72
2022/04/02 07:36:29;;;;;;;7.17;4.70;;;4.40;82.70;;;;;;21074772;28;20637;-77
2022/04/02 07:46:33;;;;;;;8.43;4.57;;;4.40;82.70;;;;;;21045610;28;20589;-76
2022/04/02 07:56:43;;;;;;;6.00;4.40;;;4.50;82.00;;;;;;20980971;28;20666;-75
2022/04/02 08:06:48;;;;;;;6.97;4.60;;;4.50;81.10;;;;;;21043602;28;20323;-76
2022/04/02 08:16:50;;;;;;;8.30;4.50;;;4.50;81.70;;;;;;21062897;28;20214;-76
2022/04/02 08:27:00;;;;;;;8.40;4.70;;;4.40;80.80;;;;;;21009332;28;20590;-75
2022/04/02 08:37:13;;;;;;;9.63;5.20;;;4.60;81.90;;;;;;20992779;28;20205;-75
2022/04/02 08:47:49;;;;;;;7.40;4.70;;;4.70;82.20;;;;;;20952075;28;20241;-74
2022/04/02 08:57:54;;;;;;;7.67;4.37;;;4.70;82.80;;;;;;21088670;28;20214;-72
2022/04/02 09:08:23;;;;;;;9.87;5.00;;;5.00;82.60;;;;;;21090953;28;20238;-76
2022/04/02 09:18:56;;;;;;;7.43;5.07;;;5.10;80.00;;;;;;21086125;28;20666;-76
2022/04/02 09:29:13;;;;;;;6.70;4.60;;;5.20;80.60;;;;;;21023595;28;20223;-75
2022/04/02 09:39:23;;;;;;;6.40;4.73;;;5.30;79.20;;;;;;20985816;28;20213;-74
2022/04/02 09:49:35;;;;;;;5.80;4.77;;;5.60;76.70;;;;;;21000319;28;20238;-75
2022/04/02 09:59:37;;;;;;;6.73;5.17;;;5.70;76.10;;;;;;20947802;28;20290;-72
2022/04/02 10:09:44;;;;;;;8.33;5.43;;;5.70;76.50;;;;;;20997736;28;20239;-69
2022/04/02 10:19:50;;;;;;;8.60;5.70;;;6.20;74.60;;;;;;20996364;28;20212;-71
2022/04/02 10:30:01;;;;;;;7.13;5.73;;;6.40;73.90;;;;;;20996565;28;20235;-67
2022/04/02 10:42:10;;;;;;;10.73;6.23;;;6.50;73.20;;;;;;21067606;28;20939;-62
2022/04/02 10:52:15;;;;;;;7.80;6.20;;;6.60;72.50;;;;;;21066533;28;20662;-66
2022/04/02 11:09:34;;;;;;;12.00;6.67;;;6.70;71.80;;;;;;21236376;27;20567;-67
2022/04/02 11:19:56;;;;;;;11.83;7.23;;;7.00;70.10;;;;;;21236188;27;20201;-64
2022/04/02 11:30:03;;;;;;;8.83;6.80;;;7.10;70.10;;;;;;21234850;27;20212;-64
2022/04/02 11:40:11;;;;;;;8.73;6.87;;;7.10;68.60;;;;;;21235644;27;20239;-66
2022/04/02 11:50:21;;;;;;;8.30;6.60;;;7.20;67.80;;;;;;21234741;27;20213;-63
2022/04/02 12:00:28;;;;;;;8.13;6.07;;;7.20;68.00;;;;;;21240636;27;20263;-68
2022/04/02 12:10:32;;;;;;;10.93;5.40;;;7.60;67.70;;;;;;21236345;27;20625;-65
2022/04/02 12:20:39;;;;;;;6.07;5.33;;;7.80;66.90;;;;;;21175749;27;20683;-61
2022/04/02 12:30:43;;;;;;;8.70;5.23;;;7.80;65.20;;;;;;21154133;28;20696;-67
2022/04/02 12:40:45;;;;;;;7.27;5.10;;;7.90;63.10;;;;;;21088642;28;20238;-63
2022/04/02 12:50:58;;;;;;;7.47;4.87;;;8.00;62.00;;;;;;21087876;28;20207;-66
2022/04/02 13:01:27;;;;;;;6.83;5.30;;;8.10;60.40;;;;;;21134712;28;20239;-69
2022/04/02 13:11:57;;;;;;;5.83;5.00;;;8.10;59.50;;;;;;21168565;28;20205;-71
2022/04/02 13:22:01;;;;;;;7.53;5.40;;;8.30;58.50;;;;;;21166500;28;20226;-67
2022/04/02 13:32:24;;;;;;;6.73;4.47;;;8.40;58.50;;;;;;21167089;28;20199;-69
2022/04/02 13:42:34;;;;;;;6.43;5.07;;;8.40;57.80;;;;;;21166728;28;20225;-67
2022/04/02 13:52:45;;;;;;;7.17;4.50;;;8.40;57.70;;;;;;21167030;28;20209;-66
2022/04/02 14:02:52;;;;;;;5.77;4.30;;;8.00;57.50;;;;;;21166664;28;20257;-68
2022/04/02 14:12:59;;;;;;;9.17;3.93;;;7.80;58.20;;;;;;21166064;28;20207;-68
2022/04/02 14:23:17;;;;;;;5.90;3.90;;;7.70;58.30;;;;;;21165768;28;20233;-68
2022/04/02 14:33:31;;;;;;;5.33;4.00;;;7.60;57.90;;;;;;21135605;28;20199;-71
2022/04/02 14:43:41;;;;;;;6.90;3.80;;;7.60;59.10;;;;;;21080480;28;20234;-77
2022/04/02 14:54:02;;;;;;;4.40;3.50;;;7.60;59.10;;;;;;21081001;28;20675;-63
2022/04/02 15:04:34;;;;;;;5.53;3.57;;;7.60;58.90;;;;;;21080152;28;20246;-64
2022/04/02 15:14:37;;;;;;;6.17;4.03;;;7.60;59.30;;;;;;21078627;28;20220;-63
2022/04/02 15:24:45;;;;;;;6.60;3.80;;;7.50;59.30;;;;;;21076261;28;20277;-64
2022/04/02 15:34:54;;;;;;;8.30;3.60;;;7.40;59.70;;;;;;21076451;28;20289;-64
2022/04/02 15:45:02;;;;;;;5.10;3.63;;;7.40;59.20;;;;;;21076875;28;20759;-65
2022/04/02 15:55:20;;;;;;;5.07;3.27;;;7.40;59.80;;;;;;21089913;28;20696;-64
2022/04/02 16:05:29;;;;;;;4.00;3.03;;;7.30;59.70;;;;;;21090871;28;20243;-63
2022/04/02 16:15:30;;;;;;;6.43;3.10;;;7.30;59.80;;;;;;21090658;28;20199;-63
2022/04/02 16:25:32;;;;;;;6.80;3.20;;;7.20;59.30;;;;;;21090422;28;20226;-64
2022/04/02 16:35:36;;;;;;;4.30;3.10;;;7.10;59.30;;;;;;21137345;28;20288;-65
2022/04/02 16:45:38;;;;;;;8.93;3.20;;;7.00;59.60;;;;;;21173331;28;20233;-66
2022/04/02 16:55:53;;;;;;;4.50;2.90;;;7.00;59.00;;;;;;21176350;28;20229;-67
2022/04/02 17:05:57;;;;;;;5.60;3.70;;;7.00;59.60;;;;;;21177022;28;20237;-62
2022/04/02 17:16:05;;;;;;;7.33;3.27;;;6.80;59.30;;;;;;21174620;28;20198;-64
2022/04/02 17:26:29;;;;;;;4.40;3.00;;;6.70;59.50;;;;;;21171375;28;20226;-68
2022/04/02 17:36:31;;;;;;;4.47;3.40;;;6.60;59.20;;;;;;21162974;28;20284;-67
2022/04/02 17:46:35;;;;;;;6.53;3.80;;;6.60;59.90;;;;;;21173210;28;20244;-66
2022/04/02 17:56:36;;;;;;;4.87;3.67;;;6.50;59.60;;;;;;21166767;28;20237;-65
2022/04/02 18:06:41;;;;;;;6.70;3.53;;;6.50;59.90;;;;;;21164658;28;20319;-68
2022/04/02 18:16:42;;;;;;;8.07;3.37;;;6.50;60.90;;;;;;21162074;28;20654;-66
2022/04/02 18:26:44;;;;;;;6.63;3.40;;;6.40;60.60;;;;;;21161558;28;20308;-67
2022/04/02 18:36:46;;;;;;;6.47;3.80;;;6.30;61.00;;;;;;21160712;28;20236;-67
2022/04/02 18:46:48;;;;;;;6.27;3.90;;;6.30;61.00;;;;;;21160199;28;20700;-66
2022/04/02 18:56:50;;;;;;;6.73;3.90;;;6.30;61.50;;;;;;21160037;28;20523;-65
2022/04/02 19:06:52;;;;;;;6.87;3.67;;;6.20;61.80;;;;;;21158463;28;20244;-66
2022/04/02 19:16:53;;;;;;;7.10;4.00;;;6.30;62.30;;;;;;21159109;28;20210;-64
2022/04/02 19:26:55;;;;;;;6.47;3.90;;;6.30;62.30;;;;;;21171232;28;20318;-67
2022/04/02 19:36:57;;;;;;;5.20;3.73;;;6.20;62.40;;;;;;21173860;28;20201;-65
2022/04/02 19:46:59;;;;;;;5.97;3.77;;;6.30;62.70;;;;;;21173557;28;20231;-65
2022/04/02 19:57:01;;;;;;;4.53;3.73;;;6.30;62.80;;;;;;21157032;28;20236;-65
2022/04/02 20:07:05;;;;;;;8.37;4.00;;;6.10;62.80;;;;;;21087610;28;20333;-64
2022/04/02 20:17:07;;;;;;;10.73;4.97;;;6.00;63.80;;;;;;21086844;28;20211;-64
2022/04/02 20:27:08;;;;;;;8.53;5.37;;;5.80;65.50;;;;;;21119525;27;20248;-65
2022/04/02 20:37:10;;;;;;;7.47;5.00;;;5.70;66.20;;;;;;21085280;28;20212;-66
2022/04/02 20:47:13;;;;;;;8.03;4.70;;;5.70;67.00;;;;;;21084746;28;20696;-65
2022/04/02 20:57:15;;;;;;;6.73;4.90;;;5.50;68.00;;;;;;21084162;28;20198;-64
2022/04/02 21:07:17;;;;;;;8.97;4.87;;;5.40;68.60;;;;;;21082229;28;20238;-67
2022/04/02 21:17:19;;;;;;;10.47;5.07;;;5.30;69.50;;;;;;21082536;28;20202;-65
2022/04/02 21:27:20;;;;;;;9.00;5.27;;;5.00;71.00;;;;;;21082543;28;20230;-66
2022/04/02 21:37:23;;;;;;;7.67;5.20;;;4.90;71.30;;;;;;21081929;28;20544;-64
2022/04/02 21:47:25;;;;;;;9.27;5.30;;;4.70;72.00;;;;;;21079993;28;20321;-64
2022/04/02 21:57:26;;;;;;;8.63;5.63;;;4.70;72.90;;;;;;21105165;28;20225;-64
2022/04/02 22:07:31;;;;;;;8.57;5.33;;;4.70;73.50;;;;;;21164997;28;20332;-63
2022/04/02 22:17:32;;;;;;;8.60;5.77;;;4.50;73.70;;;;;;21164545;28;20198;-64
2022/04/02 22:27:34;;;;;;;9.27;5.60;;;4.40;74.60;;;;;;21166625;28;20233;-64
2022/04/02 22:37:36;;;;;;;8.90;5.70;;;4.30;75.10;;;;;;21165516;28;20205;-64
2022/04/02 22:47:37;;;;;;;8.70;5.83;;;4.30;75.50;;;;;;21163428;28;20242;-64
2022/04/02 22:57:40;;;;;;;10.73;6.17;;;4.30;76.30;;;;;;21163010;28;20210;-64
2022/04/02 23:07:45;;;;;;;7.03;5.23;;;4.30;76.50;;;;;;21162301;28;20248;-64
2022/04/02 23:17:47;;;;;;;10.07;5.87;;;4.30;76.50;;;;;;21162219;28;20243;-65
2022/04/02 23:27:48;;;;;;;8.20;5.83;;;4.30;77.10;;;;;;21163998;28;20229;-67
2022/04/02 23:37:50;;;;;;;8.63;5.37;;;4.30;77.20;;;;;;21163976;28;20685;-66
2022/04/02 23:47:52;;;;;;;8.60;4.50;;;4.20;76.00;;;;;;21161327;28;20232;-66
2022/04/02 23:57:55;;;;;;;10.90;5.10;;;5.50;77.90;;;;;;21150976;28;20543;-64
